KSGU/SGU METAR and TAF weather

Enter ICAO airport designator
Station Type Date Time Source
KSGU METAR 2019/02/22 21:56 UTC NOAA

KSGU 222156Z AUTO 20007KT 10SM CLR 04/M06 A2989 RMK AO2 SLP131 T00441056


Station Type Date Time Source
KSGU Decoded METAR 2019/02/22 21:56 UTC NOAA

St George, St George Municipal Airport, UT, United States (KSGU) 37-05N 113-36W
Feb 22, 2019 - 04:56 PM EST / 2019.02.22 2156 UTC
Wind: from the SSW (200 degrees) at 8 MPH (7 KT):0
Visibility: 10 mile(s):0
Sky conditions: clear
Temperature: 39.9 F (4.4 C)
Dew Point: 21.9 F (-5.6 C)
Relative Humidity: 48%
Pressure (altimeter): 29.89 in. Hg (1012 hPa)
ob: KSGU 222156Z AUTO 20007KT 10SM CLR 04/M06 A2989 RMK AO2 SLP131 T00441056
cycle: 22

Station Type Date Time Source
KSGU TAF 2019/02/22 18:42 UTC NOAA

TAF KSGU 221741Z 2218/2318 26010KT P6SM SKC
FM230100 VRB04KT P6SM SKC


Example: see airport list